createdAt,value
2019-01-04T00:00:57.178Z,18.67
2019-01-04T00:03:28.630Z,18.30
2019-01-04T00:05:59.998Z,18.97
2019-01-04T00:08:31.385Z,17.07
2019-01-04T00:11:03.081Z,17.60
2019-01-04T00:13:36.326Z,15.97
2019-01-04T00:16:07.756Z,24.27
2019-01-04T00:18:39.575Z,21.53
2019-01-04T00:21:11.120Z,18.83
2019-01-04T00:23:42.490Z,23.87
2019-01-04T00:26:16.648Z,16.67
2019-01-04T00:28:48.069Z,26.17
2019-01-04T00:31:19.403Z,18.00
2019-01-04T00:33:50.930Z,39.47
2019-01-04T00:36:22.270Z,21.10
2019-01-04T00:38:53.866Z,20.17
2019-01-04T00:41:25.176Z,30.93
2019-01-04T00:43:56.730Z,22.03
2019-01-04T00:46:28.070Z,16.03
2019-01-04T00:48:59.431Z,17.70
2019-01-04T00:51:31.257Z,28.70
2019-01-04T00:54:02.599Z,24.70
2019-01-04T00:57:07.744Z,24.73
2019-01-04T01:00:14.070Z,23.33
2019-01-04T01:03:27.665Z,25.70
2019-01-04T01:06:51.617Z,23.00
2019-01-04T01:10:08.361Z,17.60
2019-01-04T01:13:29.582Z,19.83
2019-01-04T01:16:45.736Z,20.53
2019-01-04T01:20:02.224Z,18.93
2019-01-04T01:23:33.104Z,18.93
2019-01-04T01:26:46.855Z,20.03
2019-01-04T01:30:10.970Z,21.43
2019-01-04T01:33:08.737Z,21.37
2019-01-04T01:36:24.883Z,22.70
2019-01-04T01:39:36.260Z,30.10
2019-01-04T01:42:49.366Z,22.43
2019-01-04T01:45:49.306Z,19.73
2019-01-04T01:48:39.811Z,20.87
2019-01-04T01:51:45.802Z,17.40
2019-01-04T01:54:17.919Z,20.03
2019-01-04T01:56:51.580Z,19.20
2019-01-04T01:59:23.047Z,16.97
2019-01-04T02:01:54.365Z,17.50
2019-01-04T02:04:25.733Z,19.03
2019-01-04T02:06:57.014Z,18.53
2019-01-04T02:09:28.346Z,17.43
2019-01-04T02:11:59.763Z,18.57
2019-01-04T02:14:31.130Z,18.27
2019-01-04T02:17:02.878Z,24.03
2019-01-04T02:19:34.197Z,17.63
2019-01-04T02:22:05.562Z,16.93
2019-01-04T02:24:36.930Z,17.63
2019-01-04T02:27:09.259Z,18.13
2019-01-04T02:29:40.590Z,18.27
2019-01-04T02:32:11.990Z,19.30
2019-01-04T02:34:43.313Z,21.20
2019-01-04T02:37:14.627Z,18.90
2019-01-04T02:39:45.978Z,16.40
2019-01-04T02:42:17.338Z,19.83
2019-01-04T02:44:48.659Z,18.90
2019-01-04T02:47:20.789Z,17.17
2019-01-04T02:49:53.160Z,16.53
2019-01-04T02:52:24.500Z,16.93
2019-01-04T02:54:55.833Z,22.77
2019-01-04T02:57:27.182Z,19.33
2019-01-04T02:59:58.496Z,16.87
2019-01-04T03:02:29.848Z,20.60
2019-01-04T03:05:01.227Z,17.60
2019-01-04T03:07:32.774Z,17.10
2019-01-04T03:10:04.095Z,18.70
2019-01-04T03:12:35.575Z,16.30
2019-01-04T03:15:07.281Z,18.00
2019-01-04T03:17:38.609Z,16.93
2019-01-04T03:20:09.934Z,16.93
2019-01-04T03:22:41.371Z,19.03
2019-01-04T03:25:12.680Z,21.20
2019-01-04T03:27:44.168Z,17.40
2019-01-04T03:30:15.511Z,19.57
2019-01-04T03:32:46.796Z,18.57
2019-01-04T03:35:18.125Z,17.40
2019-01-04T03:37:49.440Z,17.83
2019-01-04T03:40:20.781Z,17.03
2019-01-04T03:42:52.088Z,16.67
2019-01-04T03:45:23.415Z,16.60
2019-01-04T03:47:54.761Z,19.63
2019-01-04T03:50:26.118Z,17.20
2019-01-04T03:52:57.489Z,19.57
2019-01-04T03:55:29.174Z,22.53
2019-01-04T03:58:00.571Z,19.63
2019-01-04T04:00:31.960Z,20.47
2019-01-04T04:03:03.301Z,19.57
2019-01-04T04:05:34.602Z,20.63
2019-01-04T04:08:05.950Z,19.13
2019-01-04T04:10:37.313Z,18.57
2019-01-04T04:13:10.479Z,20.53
2019-01-04T04:15:41.856Z,19.93
2019-01-04T04:18:13.222Z,19.87
2019-01-04T04:20:44.582Z,18.90
2019-01-04T04:23:15.873Z,17.67
2019-01-04T04:25:49.126Z,16.23
2019-01-04T04:28:20.457Z,16.63
2019-01-04T04:30:51.822Z,15.07
2019-01-04T04:33:23.392Z,14.77
2019-01-04T04:35:54.858Z,16.90
2019-01-04T04:38:26.394Z,15.03
2019-01-04T04:40:57.669Z,16.00
2019-01-04T04:43:29.014Z,16.00
2019-01-04T04:46:00.334Z,15.17
2019-01-04T04:48:31.912Z,15.03
2019-01-04T04:51:03.436Z,15.00
2019-01-04T04:53:35.979Z,13.63
2019-01-04T04:56:08.541Z,13.57
2019-01-04T04:58:39.893Z,15.03
2019-01-04T05:01:11.222Z,15.20
2019-01-04T05:03:42.553Z,15.73
2019-01-04T05:06:13.924Z,15.33
2019-01-04T05:08:45.210Z,15.60
2019-01-04T05:11:17.539Z,15.77
2019-01-04T05:13:49.218Z,16.00
2019-01-04T05:16:20.586Z,16.50
2019-01-04T05:18:51.939Z,17.77
2019-01-04T05:21:23.349Z,15.73
2019-01-04T05:23:54.904Z,19.17
2019-01-04T05:26:26.232Z,18.43
2019-01-04T05:28:58.920Z,18.90
2019-01-04T05:31:30.235Z,18.60
2019-01-04T05:34:01.546Z,18.27
2019-01-04T05:36:32.889Z,17.43
2019-01-04T05:39:05.807Z,17.33
2019-01-04T05:41:37.146Z,17.77
2019-01-04T05:44:08.432Z,17.50
2019-01-04T05:46:39.750Z,16.50
2019-01-04T05:49:11.097Z,18.03
2019-01-04T05:51:42.460Z,16.03
2019-01-04T05:54:13.785Z,16.60
2019-01-04T05:56:46.013Z,19.37
2019-01-04T05:59:17.346Z,16.40
2019-01-04T06:01:48.902Z,14.80
2019-01-04T06:04:20.231Z,16.47
2019-01-04T06:06:51.584Z,15.93
2019-01-04T06:09:23.244Z,16.07
2019-01-04T06:11:54.889Z,16.23
2019-01-04T06:14:26.286Z,15.67
2019-01-04T06:16:57.813Z,18.75
2019-01-04T06:19:29.129Z,16.60
2019-01-04T06:22:00.451Z,15.10
2019-01-04T06:24:32.239Z,17.27
2019-01-04T06:27:03.573Z,13.97
2019-01-04T06:29:34.952Z,15.73
2019-01-04T06:32:06.286Z,14.97
2019-01-04T06:34:37.583Z,16.37
2019-01-04T06:37:08.991Z,16.57
2019-01-04T06:39:40.287Z,15.83
2019-01-04T06:42:11.619Z,17.37
2019-01-04T06:44:42.934Z,14.63
2019-01-04T06:47:16.005Z,17.83
2019-01-04T06:49:47.989Z,17.23
2019-01-04T06:52:20.379Z,18.13
2019-01-04T06:55:43.056Z,16.40
2019-01-04T06:58:14.381Z,16.10
2019-01-04T07:00:46.731Z,15.53
2019-01-04T07:03:18.033Z,17.10
2019-01-04T07:05:49.373Z,15.20
2019-01-04T07:08:21.102Z,17.70
2019-01-04T07:10:52.414Z,16.57
2019-01-04T07:13:23.761Z,16.90
2019-01-04T07:15:55.174Z,18.87
2019-01-04T07:18:26.507Z,17.60
2019-01-04T07:20:57.840Z,18.80
2019-01-04T07:23:29.225Z,17.60
2019-01-04T07:26:00.571Z,15.70
2019-01-04T07:28:31.938Z,18.90
2019-01-04T07:31:03.304Z,19.67
2019-01-04T07:33:34.670Z,18.47
2019-01-04T07:36:06.230Z,18.33
2019-01-04T07:38:37.597Z,18.43
2019-01-04T07:41:08.905Z,17.40
2019-01-04T07:43:40.237Z,17.90
2019-01-04T07:46:11.568Z,24.03
2019-01-04T07:48:42.886Z,20.27
2019-01-04T07:51:14.429Z,17.70
2019-01-04T07:53:45.771Z,20.77
2019-01-04T07:56:17.081Z,22.87
2019-01-04T07:58:48.454Z,19.37
2019-01-04T08:01:19.786Z,18.97
2019-01-04T08:03:51.118Z,17.47
2019-01-04T08:06:22.456Z,18.73
2019-01-04T08:08:53.767Z,18.17
2019-01-04T08:11:25.314Z,16.43
2019-01-04T08:13:56.635Z,19.40
2019-01-04T08:16:27.999Z,19.57
2019-01-04T08:18:59.317Z,18.73
2019-01-04T08:21:30.613Z,17.13
2019-01-04T08:24:03.023Z,16.40
2019-01-04T08:26:34.421Z,14.97
2019-01-04T08:29:06.860Z,19.63
2019-01-04T08:31:38.309Z,18.13
2019-01-04T08:34:09.641Z,18.53
2019-01-04T08:36:42.011Z,17.17
2019-01-04T08:39:13.375Z,20.17
2019-01-04T08:41:45.021Z,19.57
2019-01-04T08:44:16.328Z,23.67
2019-01-04T08:46:48.018Z,20.67
2019-01-04T08:49:19.390Z,21.47
2019-01-04T08:51:50.938Z,20.70
2019-01-04T08:54:22.301Z,18.30
2019-01-04T08:56:53.654Z,17.00
2019-01-04T08:59:25.033Z,16.77
2019-01-04T09:01:56.586Z,18.30
2019-01-04T09:04:27.958Z,18.90
2019-01-04T09:06:59.317Z,21.20
2019-01-04T09:09:30.641Z,20.87
2019-01-04T09:12:02.182Z,18.27
2019-01-04T09:14:33.713Z,20.43
2019-01-04T09:17:05.150Z,19.60
2019-01-04T09:19:36.942Z,19.10
2019-01-04T09:22:08.310Z,19.87
2019-01-04T09:24:39.654Z,18.90
2019-01-04T09:27:11.046Z,20.10
2019-01-04T09:29:42.367Z,21.17
2019-01-04T09:32:13.707Z,20.97
2019-01-04T09:34:45.066Z,20.33
2019-01-04T09:37:16.425Z,23.37
2019-01-04T09:39:47.947Z,25.77
2019-01-04T09:42:21.520Z,22.20
2019-01-04T09:44:54.814Z,23.03
2019-01-04T09:47:26.160Z,25.23
2019-01-04T09:49:57.444Z,24.17
2019-01-04T09:52:28.675Z,24.33
2019-01-04T09:54:59.917Z,22.93
2019-01-04T09:57:31.770Z,21.83
2019-01-04T10:00:03.001Z,22.13
2019-01-04T10:02:34.276Z,20.83
2019-01-04T10:05:06.282Z,21.77
2019-01-04T10:07:37.525Z,19.60
2019-01-04T10:10:11.714Z,18.73
2019-01-04T10:12:43.091Z,20.80
2019-01-04T10:15:16.461Z,21.53
2019-01-04T10:17:47.788Z,25.83
2019-01-04T10:20:19.033Z,22.60
2019-01-04T10:22:50.293Z,21.97
2019-01-04T10:25:21.985Z,22.10
2019-01-04T10:27:53.273Z,23.57
2019-01-04T10:30:28.355Z,17.77
2019-01-04T10:32:59.603Z,19.17
2019-01-04T10:35:30.871Z,18.03
2019-01-04T10:38:02.266Z,19.97
2019-01-04T10:40:34.686Z,17.30
2019-01-04T10:43:05.921Z,18.37
2019-01-04T10:45:37.311Z,17.00
2019-01-04T10:48:12.324Z,18.50
2019-01-04T10:50:43.756Z,19.53
2019-01-04T10:53:14.946Z,20.57
2019-01-04T10:55:46.188Z,19.03
2019-01-04T10:58:17.422Z,17.10
2019-01-04T11:00:48.830Z,16.73
2019-01-04T11:03:20.080Z,17.83
2019-01-04T11:05:51.772Z,17.93
2019-01-04T11:08:23.081Z,21.03
2019-01-04T11:10:54.340Z,19.10
2019-01-04T11:13:25.597Z,19.53
2019-01-04T11:15:56.858Z,20.40
2019-01-04T11:18:28.183Z,18.93
2019-01-04T11:21:01.884Z,18.10
2019-01-04T11:24:13.156Z,18.10
2019-01-04T11:26:53.220Z,16.67
2019-01-04T11:29:48.777Z,16.33
2019-01-04T11:32:54.109Z,19.40
2019-01-04T11:35:53.023Z,17.87
2019-01-04T11:39:02.576Z,21.23
2019-01-04T11:42:03.864Z,18.30
2019-01-04T11:44:57.239Z,18.67
2019-01-04T11:48:27.454Z,17.33
2019-01-04T11:51:36.161Z,17.73
2019-01-04T11:54:12.346Z,18.63
2019-01-04T11:56:43.585Z,18.83
2019-01-04T11:59:15.038Z,17.97
2019-01-04T12:01:46.282Z,17.97
2019-01-04T12:04:17.562Z,17.53
2019-01-04T12:06:48.822Z,21.47
2019-01-04T12:09:20.239Z,19.93
2019-01-04T12:11:52.446Z,19.17
2019-01-04T12:14:23.746Z,21.70
2019-01-04T12:16:55.002Z,20.20
2019-01-04T12:19:26.297Z,23.77
2019-01-04T12:21:57.560Z,21.90
2019-01-04T12:24:28.820Z,20.40
2019-01-04T12:27:00.084Z,22.27
2019-01-04T12:29:31.351Z,21.07
2019-01-04T12:32:02.618Z,19.20
2019-01-04T12:34:33.892Z,22.83
2019-01-04T12:37:05.174Z,20.70
2019-01-04T12:39:36.429Z,21.53
2019-01-04T12:42:07.691Z,21.77
2019-01-04T12:44:38.953Z,24.23
2019-01-04T12:47:10.203Z,23.67
2019-01-04T12:49:41.451Z,20.70
2019-01-04T12:52:12.710Z,33.93
2019-01-04T12:54:44.960Z,26.23
2019-01-04T12:57:16.209Z,25.37
2019-01-04T12:59:47.431Z,21.77
2019-01-04T13:02:18.740Z,20.47
2019-01-04T13:04:49.939Z,23.77
2019-01-04T13:07:21.205Z,22.70
2019-01-04T13:09:52.452Z,25.13
2019-01-04T13:12:23.809Z,22.73
2019-01-04T13:14:55.070Z,22.37
2019-01-04T13:17:26.366Z,22.73
2019-01-04T13:19:57.679Z,20.83
2019-01-04T13:22:28.910Z,21.17
2019-01-04T13:25:00.158Z,20.57
2019-01-04T13:27:31.414Z,20.00
2019-01-04T13:30:03.260Z,17.77
2019-01-04T13:32:34.536Z,19.83
2019-01-04T13:35:05.829Z,21.13
2019-01-04T13:37:37.084Z,20.87
2019-01-04T13:40:08.496Z,20.60
2019-01-04T13:42:39.756Z,25.37
2019-01-04T13:45:11.118Z,19.27
2019-01-04T13:47:42.362Z,24.57
2019-01-04T13:50:13.823Z,23.60
2019-01-04T13:52:45.108Z,21.83
2019-01-04T13:55:16.320Z,24.90
2019-01-04T13:57:47.590Z,23.73
2019-01-04T14:00:18.832Z,22.27
2019-01-04T14:02:50.272Z,20.33
2019-01-04T14:05:21.540Z,21.00
2019-01-04T14:07:53.254Z,18.47
2019-01-04T14:10:24.513Z,16.97
2019-01-04T14:12:55.808Z,17.47
2019-01-04T14:15:27.115Z,21.03
2019-01-04T14:17:58.401Z,41.93
2019-01-04T14:20:29.688Z,24.13
2019-01-04T14:23:00.944Z,24.93
2019-01-04T14:25:33.920Z,21.70
2019-01-04T14:28:05.164Z,23.80
2019-01-04T14:30:36.435Z,18.27
2019-01-04T14:33:07.656Z,20.50
2019-01-04T14:35:38.928Z,27.43
2019-01-04T14:38:10.154Z,22.43
2019-01-04T14:40:41.434Z,18.80
2019-01-04T14:43:12.700Z,17.27
2019-01-04T14:45:43.948Z,17.27
2019-01-04T14:48:15.626Z,14.73
2019-01-04T14:50:46.853Z,16.30
2019-01-04T14:53:18.117Z,14.17
2019-01-04T14:55:50.586Z,14.73
2019-01-04T14:58:21.875Z,13.80
2019-01-04T15:00:53.144Z,13.97
2019-01-04T15:03:24.932Z,14.80
2019-01-04T15:05:56.512Z,14.10
2019-01-04T15:08:27.785Z,12.67
2019-01-04T15:10:59.110Z,15.90
2019-01-04T15:13:30.781Z,13.90
2019-01-04T15:16:02.051Z,13.27
2019-01-04T15:18:33.793Z,12.73
2019-01-04T15:21:05.146Z,12.93
2019-01-04T15:23:37.496Z,14.27
2019-01-04T15:26:08.850Z,11.00
2019-01-04T15:28:40.305Z,12.90
2019-01-04T15:31:11.648Z,14.43
2019-01-04T15:33:42.989Z,13.80
2019-01-04T15:36:14.536Z,15.47
2019-01-04T15:38:45.973Z,14.50
2019-01-04T15:41:17.302Z,16.03
2019-01-04T15:43:48.689Z,13.83
2019-01-04T15:46:20.297Z,16.23
2019-01-04T15:48:51.787Z,16.23
2019-01-04T15:51:23.136Z,14.93
2019-01-04T15:53:54.405Z,14.57
2019-01-04T15:56:26.104Z,13.10
2019-01-04T15:58:57.357Z,15.60
2019-01-04T16:01:28.600Z,18.87
2019-01-04T16:04:00.862Z,15.70
2019-01-04T16:06:32.120Z,21.03
2019-01-04T16:09:04.654Z,17.67
2019-01-04T16:11:35.933Z,15.60
2019-01-04T16:14:07.434Z,15.20
2019-01-04T16:16:38.665Z,16.57
2019-01-04T16:19:09.925Z,15.17
2019-01-04T16:21:41.160Z,16.60
2019-01-04T16:24:12.614Z,16.13
2019-01-04T16:26:43.853Z,20.37
2019-01-04T16:29:15.102Z,19.90
2019-01-04T16:31:46.358Z,24.37
2019-01-04T16:34:17.797Z,17.50
2019-01-04T16:36:49.076Z,14.57
2019-01-04T16:39:20.362Z,14.97
2019-01-04T16:41:51.652Z,22.70
2019-01-04T16:44:23.060Z,25.23
2019-01-04T16:46:54.331Z,23.50
2019-01-04T16:49:25.661Z,46.63
2019-01-04T16:51:56.954Z,33.73
2019-01-04T16:54:28.632Z,36.00
2019-01-04T16:57:00.896Z,18.70
2019-01-04T16:59:33.158Z,23.57
2019-01-04T17:02:04.732Z,30.17
2019-01-04T17:04:36.854Z,22.87
2019-01-04T17:07:09.137Z,13.53
2019-01-04T17:09:40.425Z,15.93
2019-01-04T17:12:11.637Z,15.07
2019-01-04T17:14:43.085Z,14.17
2019-01-04T17:17:14.296Z,16.70
2019-01-04T17:19:45.577Z,17.80
2019-01-04T17:22:16.867Z,19.53
2019-01-04T17:24:48.131Z,18.23
2019-01-04T17:27:20.954Z,17.27
2019-01-04T17:29:52.205Z,15.50
2019-01-04T17:32:23.479Z,16.37
2019-01-04T17:34:54.766Z,15.43
2019-01-04T17:37:26.025Z,13.80
2019-01-04T17:39:57.336Z,16.10
2019-01-04T17:42:28.568Z,12.37
2019-01-04T17:44:59.856Z,12.60
2019-01-04T17:47:31.297Z,12.13
2019-01-04T17:50:03.399Z,11.97
2019-01-04T17:52:34.903Z,11.73
2019-01-04T17:55:07.119Z,12.03
2019-01-04T17:57:38.365Z,11.83
2019-01-04T18:00:11.015Z,11.30
2019-01-04T18:02:42.401Z,13.07
2019-01-04T18:05:13.800Z,10.77
2019-01-04T18:07:45.096Z,11.90
2019-01-04T18:10:16.422Z,10.93
2019-01-04T18:12:47.705Z,11.87
2019-01-04T18:15:18.989Z,13.07
2019-01-04T18:17:50.243Z,11.90
2019-01-04T18:20:21.468Z,11.40
2019-01-04T18:22:52.782Z,12.13
2019-01-04T18:25:24.037Z,12.10
2019-01-04T18:27:56.325Z,11.90
2019-01-04T18:30:27.554Z,13.27
2019-01-04T18:32:58.823Z,13.47
2019-01-04T18:35:30.092Z,13.43
2019-01-04T18:38:01.312Z,12.67
2019-01-04T18:40:32.602Z,13.60
2019-01-04T18:43:03.856Z,13.20
2019-01-04T18:45:35.109Z,14.63
2019-01-04T18:48:06.472Z,14.20
2019-01-04T18:50:37.772Z,14.40
2019-01-04T18:53:10.033Z,13.70
2019-01-04T18:55:41.273Z,15.47
2019-01-04T18:58:12.973Z,17.37
2019-01-04T19:00:44.235Z,15.63
2019-01-04T19:03:16.115Z,15.20
2019-01-04T19:05:47.935Z,12.90
2019-01-04T19:08:19.195Z,14.17
2019-01-04T19:10:50.457Z,18.00
2019-01-04T19:13:26.805Z,17.50
2019-01-04T19:15:55.098Z,17.53
2019-01-04T19:18:26.768Z,17.73
2019-01-04T19:20:59.024Z,18.90
2019-01-04T19:23:30.361Z,18.63
2019-01-04T19:26:02.646Z,17.53
2019-01-04T19:28:34.049Z,15.87
2019-01-04T19:31:05.360Z,17.50
2019-01-04T19:33:38.485Z,16.87
2019-01-04T19:36:09.753Z,18.43
2019-01-04T19:38:41.017Z,20.30
2019-01-04T19:41:12.314Z,18.90
2019-01-04T19:43:43.604Z,17.37
2019-01-04T19:46:15.126Z,16.33
2019-01-04T19:48:46.557Z,16.57
2019-01-04T19:51:17.791Z,17.90
2019-01-04T19:53:49.069Z,17.07
2019-01-04T19:56:20.326Z,19.13
2019-01-04T19:58:51.595Z,17.97
2019-01-04T20:01:22.847Z,20.60
2019-01-04T20:03:54.260Z,17.67
2019-01-04T20:07:25.989Z,17.17
2019-01-04T20:11:22.561Z,17.23
2019-01-04T20:15:14.636Z,20.77
2019-01-04T20:18:06.449Z,19.70
2019-01-04T20:20:55.837Z,18.20
2019-01-04T20:23:44.765Z,17.60
2019-01-04T20:26:33.556Z,16.80
2019-01-04T20:29:39.627Z,20.80
2019-01-04T20:32:28.353Z,20.63
2019-01-04T20:35:16.839Z,20.50
2019-01-04T20:38:05.355Z,19.67
2019-01-04T20:41:01.209Z,17.87
2019-01-04T20:43:49.725Z,21.57
2019-01-04T20:46:39.139Z,22.03
2019-01-04T20:49:44.212Z,17.70
2019-01-04T20:52:32.684Z,20.50
2019-01-04T20:55:21.338Z,20.03
2019-01-04T20:58:11.435Z,20.30
2019-01-04T21:01:01.708Z,18.60
2019-01-04T21:03:58.665Z,18.73
2019-01-04T21:06:52.581Z,21.07
2019-01-04T21:09:54.825Z,18.77
2019-01-04T21:12:47.713Z,23.10
2019-01-04T21:15:36.574Z,19.37
2019-01-04T21:18:38.970Z,19.13
2019-01-04T21:21:27.680Z,21.77
2019-01-04T21:24:24.281Z,20.83
2019-01-04T21:27:10.958Z,21.80
2019-01-04T21:30:24.929Z,22.70
2019-01-04T21:33:18.120Z,23.07
2019-01-04T21:36:17.153Z,20.13
2019-01-04T21:39:16.856Z,20.70
2019-01-04T21:42:15.945Z,20.87
2019-01-04T21:45:04.446Z,20.33
2019-01-04T21:47:53.437Z,23.07
2019-01-04T21:50:42.029Z,22.90
2019-01-04T21:53:35.234Z,22.33
2019-01-04T21:56:43.665Z,24.27
2019-01-04T21:59:40.496Z,25.67
2019-01-04T22:02:39.713Z,23.80
2019-01-04T22:05:28.616Z,21.73
2019-01-04T22:08:17.327Z,22.97
2019-01-04T22:11:11.425Z,24.03
2019-01-04T22:14:00.229Z,21.23
2019-01-04T22:16:49.035Z,25.93
2019-01-04T22:19:45.941Z,23.53
2019-01-04T22:22:38.526Z,23.30
2019-01-04T22:25:28.900Z,21.27
2019-01-04T22:28:22.086Z,20.77
2019-01-04T22:31:10.610Z,20.80
2019-01-04T22:34:02.437Z,22.87
2019-01-04T22:36:56.498Z,23.67
2019-01-04T22:39:45.175Z,24.47
2019-01-04T22:42:34.748Z,21.87
2019-01-04T22:45:30.793Z,22.87
2019-01-04T22:48:16.737Z,24.00
2019-01-04T22:51:26.191Z,25.70
2019-01-04T22:54:19.364Z,25.87
2019-01-04T22:57:18.277Z,27.33
2019-01-04T23:00:11.136Z,23.10
2019-01-04T23:03:01.389Z,25.37
2019-01-04T23:06:09.412Z,24.33
2019-01-04T23:08:56.930Z,23.70
2019-01-04T23:11:49.789Z,24.97
2019-01-04T23:14:51.120Z,26.57
2019-01-04T23:17:41.237Z,24.97
2019-01-04T23:20:29.899Z,22.07
2019-01-04T23:23:21.254Z,22.50
2019-01-04T23:26:26.605Z,19.83
2019-01-04T23:29:15.129Z,25.67
2019-01-04T23:32:07.977Z,22.03
2019-01-04T23:35:04.421Z,23.00
2019-01-04T23:38:03.403Z,24.80
2019-01-04T23:40:51.981Z,23.33
2019-01-04T23:43:42.414Z,23.93
2019-01-04T23:46:32.709Z,22.57
2019-01-04T23:49:29.061Z,23.57
2019-01-04T23:52:19.301Z,25.53
2019-01-04T23:55:18.889Z,24.13
2019-01-04T23:58:07.358Z,24.07
